createdAt,value
2019-05-02T00:01:12.448Z,57.00
2019-05-02T00:03:41.233Z,57.20
2019-05-02T00:06:09.325Z,56.90
2019-05-02T00:08:35.945Z,57.30
2019-05-02T00:11:03.390Z,57.20
2019-05-02T00:13:30.078Z,57.10
2019-05-02T00:15:56.889Z,57.60
2019-05-02T00:18:24.019Z,58.00
2019-05-02T00:20:50.762Z,58.00
2019-05-02T00:23:17.481Z,58.00
2019-05-02T00:26:03.855Z,58.20
2019-05-02T00:28:30.966Z,57.70
2019-05-02T00:30:57.877Z,57.20
2019-05-02T00:33:24.426Z,57.00
2019-05-02T00:35:51.006Z,57.00
2019-05-02T00:38:17.636Z,57.60
2019-05-02T00:40:46.323Z,57.90
2019-05-02T00:43:12.610Z,58.30
2019-05-02T00:45:39.243Z,58.20
2019-05-02T00:48:10.715Z,58.30
2019-05-02T00:50:40.579Z,58.20
2019-05-02T00:53:11.915Z,58.10
2019-05-02T00:55:36.213Z,58.40
2019-05-02T00:58:03.465Z,58.20
2019-05-02T01:01:08.393Z,58.40
2019-05-02T01:03:36.696Z,58.50
2019-05-02T01:06:03.698Z,58.50
2019-05-02T01:08:30.976Z,58.40
2019-05-02T01:10:58.658Z,58.50
2019-05-02T01:13:25.156Z,58.50
2019-05-02T01:15:51.734Z,58.70
2019-05-02T01:18:20.556Z,58.50
2019-05-02T01:20:47.130Z,58.30
2019-05-02T01:23:13.795Z,58.70
2019-05-02T01:26:00.266Z,59.10
2019-05-02T01:28:49.305Z,59.30
2019-05-02T01:31:24.324Z,59.40
2019-05-02T01:33:55.725Z,58.90
2019-05-02T01:36:46.830Z,59.10
2019-05-02T01:39:13.532Z,58.80
2019-05-02T01:41:40.314Z,58.80
2019-05-02T01:44:06.846Z,58.60
2019-05-02T01:46:33.416Z,58.70
2019-05-02T01:49:00.125Z,58.70
2019-05-02T01:51:26.665Z,58.50
2019-05-02T01:53:52.953Z,58.40
2019-05-02T01:56:33.180Z,59.10
2019-05-02T01:59:00.459Z,59.00
2019-05-02T02:01:26.938Z,59.10
2019-05-02T02:03:53.622Z,59.20
2019-05-02T02:06:20.258Z,59.20
2019-05-02T02:09:03.481Z,59.60
2019-05-02T02:11:33.934Z,59.40
2019-05-02T02:13:58.964Z,59.40
2019-05-02T02:16:26.642Z,58.90
2019-05-02T02:19:05.366Z,59.10
2019-05-02T02:21:34.206Z,59.20
2019-05-02T02:24:02.466Z,59.50
2019-05-02T02:26:49.936Z,59.80
2019-05-02T02:29:27.508Z,59.90
2019-05-02T02:31:54.063Z,59.80
2019-05-02T02:34:32.422Z,60.00
2019-05-02T02:36:59.221Z,60.00
2019-05-02T02:39:25.939Z,60.00
2019-05-02T02:42:03.423Z,60.50
2019-05-02T02:44:41.888Z,60.80
2019-05-02T02:47:11.827Z,61.20
2019-05-02T02:49:55.694Z,61.80
2019-05-02T02:52:18.540Z,62.20
2019-05-02T02:54:45.135Z,62.20
2019-05-02T02:57:21.875Z,62.70
2019-05-02T02:59:39.851Z,62.70
2019-05-02T03:02:10.419Z,62.90
2019-05-02T03:04:54.717Z,63.70
2019-05-02T03:07:25.903Z,64.10
2019-05-02T03:09:50.086Z,64.80
2019-05-02T03:12:21.105Z,64.40
2019-05-02T03:14:50.806Z,64.30
2019-05-02T03:17:20.347Z,64.80
2019-05-02T03:19:47.294Z,65.60
2019-05-02T03:22:13.869Z,66.10
2019-05-02T03:24:44.038Z,66.30
2019-05-02T03:27:08.966Z,66.30
2019-05-02T03:29:41.140Z,66.40
2019-05-02T03:32:14.187Z,65.60
2019-05-02T03:34:46.479Z,66.00
2019-05-02T03:37:03.147Z,67.80
2019-05-02T03:39:29.025Z,68.50
2019-05-02T03:42:02.976Z,68.30
2019-05-02T03:44:37.051Z,68.10
2019-05-02T03:47:05.035Z,68.70
2019-05-02T03:49:48.672Z,69.10
2019-05-02T03:52:11.051Z,68.90
2019-05-02T03:54:48.472Z,69.20
2019-05-02T03:57:06.947Z,69.20
2019-05-02T03:59:38.642Z,68.90
2019-05-02T04:02:01.922Z,69.80
2019-05-02T04:04:29.058Z,69.50
2019-05-02T04:07:01.021Z,69.00
2019-05-02T04:09:39.053Z,69.30
2019-05-02T04:12:03.072Z,70.00
2019-05-02T04:14:37.782Z,70.00
2019-05-02T04:16:58.232Z,70.20
2019-05-02T04:19:28.563Z,69.90
2019-05-02T04:22:01.706Z,69.90
2019-05-02T04:24:24.308Z,70.40
2019-05-02T04:26:54.034Z,70.70
2019-05-02T04:29:39.321Z,70.80
2019-05-02T04:32:11.478Z,71.10
2019-05-02T04:34:34.401Z,71.20
2019-05-02T04:37:04.056Z,70.90
2019-05-02T04:39:29.577Z,70.80
2019-05-02T04:41:58.628Z,71.90
2019-05-02T04:44:38.457Z,72.30
2019-05-02T04:46:59.892Z,71.40
2019-05-02T04:49:32.679Z,70.50
2019-05-02T04:51:59.821Z,71.00
2019-05-02T04:54:25.807Z,70.20
2019-05-02T04:56:52.334Z,70.60
2019-05-02T04:59:19.888Z,71.60
2019-05-02T05:01:50.841Z,72.00
2019-05-02T05:04:12.061Z,71.70
2019-05-02T05:06:40.868Z,71.00
2019-05-02T05:09:12.673Z,71.20
2019-05-02T05:11:35.551Z,72.40
2019-05-02T05:14:02.218Z,72.20
2019-05-02T05:16:28.886Z,72.30
2019-05-02T05:18:55.580Z,71.30
2019-05-02T05:21:32.710Z,71.10
2019-05-02T05:24:01.714Z,71.60
2019-05-02T05:26:33.955Z,71.30
2019-05-02T05:28:58.785Z,70.50
2019-05-02T05:31:26.366Z,70.70
2019-05-02T05:33:53.901Z,71.60
2019-05-02T05:36:28.890Z,71.40
2019-05-02T05:38:49.123Z,70.30
2019-05-02T05:41:19.938Z,70.00
2019-05-02T05:43:44.782Z,69.50
2019-05-02T05:46:13.187Z,69.90
2019-05-02T05:48:52.960Z,69.80
2019-05-02T05:51:20.736Z,68.90
2019-05-02T05:54:03.112Z,69.50
2019-05-02T05:56:32.439Z,69.30
2019-05-02T05:58:59.181Z,68.60
2019-05-02T06:01:33.932Z,68.20
2019-05-02T06:03:57.841Z,67.70
2019-05-02T06:06:24.574Z,66.80
2019-05-02T06:08:54.119Z,66.20
2019-05-02T06:11:21.678Z,65.50
2019-05-02T06:13:50.436Z,64.80
2019-05-02T06:16:16.952Z,64.60
2019-05-02T06:18:43.714Z,64.20
2019-05-02T06:21:10.805Z,64.00
2019-05-02T06:23:41.385Z,64.30
2019-05-02T06:26:07.993Z,64.30
2019-05-02T06:28:36.338Z,63.50
2019-05-02T06:31:07.342Z,63.60
2019-05-02T06:33:32.344Z,63.00
2019-05-02T06:36:01.414Z,63.10
2019-05-02T06:38:27.289Z,63.40
2019-05-02T06:40:54.265Z,63.20
2019-05-02T06:43:20.934Z,63.50
2019-05-02T06:45:47.613Z,63.40
2019-05-02T06:48:17.657Z,62.90
2019-05-02T06:50:43.618Z,61.80
2019-05-02T06:53:11.230Z,61.60
2019-05-02T06:55:38.762Z,61.10
2019-05-02T06:58:08.001Z,61.00
2019-05-02T07:00:38.420Z,60.70
2019-05-02T07:03:04.921Z,61.10
2019-05-02T07:05:31.233Z,61.50
2019-05-02T07:07:58.055Z,61.80
2019-05-02T07:10:25.894Z,62.00
2019-05-02T07:13:09.429Z,62.00
2019-05-02T07:15:23.622Z,61.80
2019-05-02T07:17:50.821Z,62.90
2019-05-02T07:20:18.784Z,63.00
2019-05-02T07:22:45.844Z,62.70
2019-05-02T07:25:15.199Z,62.50
2019-05-02T07:27:41.849Z,62.40
2019-05-02T07:30:10.610Z,62.40
2019-05-02T07:32:37.143Z,62.30
2019-05-02T07:35:28.331Z,62.20
2019-05-02T07:38:05.616Z,62.00
2019-05-02T07:40:32.141Z,62.50
2019-05-02T07:42:58.886Z,62.50
2019-05-02T07:45:25.436Z,63.30
2019-05-02T07:47:51.930Z,62.90
2019-05-02T07:50:18.597Z,62.60
2019-05-02T07:52:45.258Z,63.10
2019-05-02T07:55:13.260Z,63.70
2019-05-02T07:58:01.917Z,60.90
2019-05-02T08:00:32.047Z,59.60
2019-05-02T08:02:58.237Z,59.10
2019-05-02T08:05:25.329Z,59.10
2019-05-02T08:07:54.995Z,59.20
2019-05-02T08:10:22.197Z,58.90
2019-05-02T08:12:49.033Z,58.00
2019-05-02T08:15:15.747Z,58.30
2019-05-02T08:17:42.740Z,59.60
2019-05-02T08:20:13.564Z,60.30
2019-05-02T08:22:38.008Z,58.10
2019-05-02T08:25:24.540Z,58.60
2019-05-02T08:27:56.139Z,57.40
2019-05-02T08:30:24.920Z,57.70
2019-05-02T08:33:04.209Z,57.40
2019-05-02T08:35:30.642Z,57.50
2019-05-02T08:37:56.974Z,57.10
2019-05-02T08:40:23.531Z,57.30
2019-05-02T08:42:50.224Z,57.00
2019-05-02T08:45:16.823Z,57.10
2019-05-02T08:47:43.330Z,57.00
2019-05-02T08:50:10.004Z,57.40
2019-05-02T08:52:42.098Z,57.60
2019-05-02T08:55:09.575Z,57.70
2019-05-02T08:57:36.290Z,57.40
2019-05-02T09:00:05.545Z,57.00
2019-05-02T09:02:41.197Z,55.70
2019-05-02T09:05:04.578Z,56.50
2019-05-02T09:07:31.526Z,57.90
2019-05-02T09:10:00.184Z,57.60
2019-05-02T09:12:26.684Z,57.00
2019-05-02T09:14:53.323Z,57.30
2019-05-02T09:17:34.590Z,58.10
2019-05-02T09:19:59.461Z,56.60
2019-05-02T09:22:16.884Z,57.50
2019-05-02T09:24:44.960Z,57.60
2019-05-02T09:27:11.972Z,57.90
2019-05-02T09:29:44.503Z,57.10
2019-05-02T09:32:06.946Z,56.20
2019-05-02T09:34:33.622Z,56.90
2019-05-02T09:37:02.565Z,57.20
2019-05-02T09:39:32.685Z,57.40
2019-05-02T09:41:57.089Z,57.40
2019-05-02T09:44:23.624Z,57.50
2019-05-02T09:47:12.837Z,56.60
2019-05-02T09:49:43.581Z,55.00
2019-05-02T09:52:07.997Z,55.30
2019-05-02T09:54:37.113Z,55.70
2019-05-02T09:57:03.241Z,56.00
2019-05-02T09:59:33.135Z,56.10
2019-05-02T10:02:01.533Z,55.30
2019-05-02T10:04:28.227Z,55.20
2019-05-02T10:06:54.947Z,55.60
2019-05-02T10:09:24.234Z,56.50
2019-05-02T10:11:52.312Z,55.70
2019-05-02T10:14:18.578Z,56.20
2019-05-02T10:16:45.290Z,54.80
2019-05-02T10:19:14.502Z,54.70
2019-05-02T10:21:42.219Z,54.90
2019-05-02T10:24:09.150Z,55.40
2019-05-02T10:26:35.748Z,55.00
2019-05-02T10:29:03.092Z,56.40
2019-05-02T10:31:33.405Z,55.30
2019-05-02T10:33:58.323Z,55.30
2019-05-02T10:36:25.210Z,53.00
2019-05-02T10:38:54.750Z,51.30
2019-05-02T10:41:22.295Z,52.20
2019-05-02T10:43:51.951Z,51.90
2019-05-02T10:46:38.813Z,52.20
2019-05-02T10:49:16.365Z,52.70
2019-05-02T10:51:49.053Z,52.00
2019-05-02T10:54:12.027Z,52.40
2019-05-02T10:56:39.045Z,50.60
2019-05-02T10:59:05.970Z,52.30
2019-05-02T11:01:34.548Z,53.40
2019-05-02T11:04:04.270Z,54.60
2019-05-02T11:06:32.407Z,53.60
2019-05-02T11:08:59.367Z,54.20
2019-05-02T11:11:26.149Z,54.30
2019-05-02T11:14:04.868Z,52.40
2019-05-02T11:16:32.162Z,53.20
2019-05-02T11:19:03.445Z,55.20
2019-05-02T11:21:32.053Z,50.60
2019-05-02T11:23:58.650Z,48.10
2019-05-02T11:26:25.734Z,48.30
2019-05-02T11:28:52.597Z,46.40
2019-05-02T11:31:19.366Z,47.50
2019-05-02T11:33:45.985Z,47.20
2019-05-02T11:36:13.751Z,45.40
2019-05-02T11:38:44.383Z,47.00
2019-05-02T11:41:08.941Z,47.20
2019-05-02T11:43:37.240Z,46.40
2019-05-02T11:46:07.270Z,46.50
2019-05-02T11:48:32.751Z,45.70
2019-05-02T11:50:59.543Z,45.70
2019-05-02T11:53:29.382Z,46.60
2019-05-02T11:55:58.325Z,45.80
2019-05-02T11:58:23.077Z,46.40
2019-05-02T12:00:52.089Z,46.90
2019-05-02T12:03:21.864Z,47.30
2019-05-02T12:05:48.521Z,47.40
2019-05-02T12:08:15.229Z,47.30
2019-05-02T12:10:42.388Z,48.40
2019-05-02T12:13:11.885Z,48.60
2019-05-02T12:15:37.554Z,48.30
2019-05-02T12:18:05.361Z,46.60
2019-05-02T12:20:33.911Z,46.20
2019-05-02T12:23:02.073Z,45.70
2019-05-02T12:25:29.027Z,46.10
2019-05-02T12:27:56.001Z,47.00
2019-05-02T12:30:22.926Z,46.90
2019-05-02T12:32:53.099Z,48.20
2019-05-02T12:35:20.066Z,48.50
2019-05-02T12:37:47.022Z,48.00
2019-05-02T12:40:15.458Z,48.40
2019-05-02T12:42:42.169Z,48.40
2019-05-02T12:45:09.193Z,48.50
2019-05-02T12:47:36.201Z,47.90
2019-05-02T12:50:04.679Z,47.60
2019-05-02T12:52:43.245Z,47.20
2019-05-02T12:55:12.619Z,47.30
2019-05-02T12:57:39.223Z,47.30
2019-05-02T13:00:06.780Z,47.80
2019-05-02T13:02:43.688Z,48.00
2019-05-02T13:05:10.523Z,49.00
2019-05-02T13:07:37.205Z,49.50
2019-05-02T13:10:06.064Z,49.70
2019-05-02T13:12:34.808Z,50.00
2019-05-02T13:15:02.277Z,49.80
2019-05-02T13:17:29.573Z,50.00
2019-05-02T13:20:00.758Z,49.70
2019-05-02T13:22:44.232Z,48.90
2019-05-02T13:25:13.075Z,48.00
2019-05-02T13:27:46.001Z,48.50
2019-05-02T13:30:12.434Z,47.00
2019-05-02T13:32:42.691Z,46.90
2019-05-02T13:35:22.318Z,47.70
2019-05-02T13:37:49.204Z,46.90
2019-05-02T13:40:24.858Z,47.50
2019-05-02T13:42:52.323Z,46.90
2019-05-02T13:45:37.517Z,47.20
2019-05-02T13:48:06.553Z,47.20
2019-05-02T13:50:33.301Z,47.30
2019-05-02T13:52:59.785Z,46.90
2019-05-02T13:55:28.454Z,47.10
2019-05-02T13:57:55.212Z,46.30
2019-05-02T14:00:26.752Z,47.00
2019-05-02T14:02:54.098Z,46.50
2019-05-02T14:05:22.234Z,47.00
2019-05-02T14:08:09.675Z,47.30
2019-05-02T14:10:39.259Z,47.00
2019-05-02T14:13:12.519Z,46.80
2019-05-02T14:15:39.425Z,46.90
2019-05-02T14:18:06.332Z,46.00
2019-05-02T14:20:33.413Z,45.90
2019-05-02T14:23:02.001Z,45.40
2019-05-02T14:25:28.710Z,46.00
2019-05-02T14:27:55.821Z,46.70
2019-05-02T14:30:36.180Z,45.90
2019-05-02T14:32:55.562Z,47.70
2019-05-02T14:35:36.263Z,47.10
2019-05-02T14:38:08.328Z,47.50
2019-05-02T14:41:02.800Z,46.50
2019-05-02T14:43:48.418Z,46.40
2019-05-02T14:46:39.413Z,45.50
2019-05-02T14:49:03.817Z,45.10
2019-05-02T14:51:32.580Z,44.00
2019-05-02T14:54:03.552Z,43.60
2019-05-02T14:56:45.916Z,42.50
2019-05-02T14:59:09.129Z,43.80
2019-05-02T15:01:37.658Z,43.10
2019-05-02T15:04:08.235Z,42.90
2019-05-02T15:06:33.745Z,41.90
2019-05-02T15:09:16.794Z,42.10
2019-05-02T15:11:46.008Z,41.30
2019-05-02T15:14:18.049Z,39.00
2019-05-02T15:16:44.981Z,37.50
2019-05-02T15:19:09.668Z,36.90
2019-05-02T15:21:47.065Z,36.60
2019-05-02T15:24:11.974Z,37.60
2019-05-02T15:26:38.889Z,38.60
2019-05-02T15:29:06.571Z,39.00
2019-05-02T15:31:52.609Z,40.00
2019-05-02T15:34:46.193Z,40.30
2019-05-02T15:37:07.553Z,37.20
2019-05-02T15:42:02.799Z,32.50
2019-05-02T15:44:29.210Z,34.50
2019-05-02T15:46:58.353Z,36.90
2019-05-02T15:49:24.330Z,39.80
2019-05-02T15:51:52.453Z,40.70
2019-05-02T15:54:20.439Z,41.50
2019-05-02T15:57:00.064Z,42.20
2019-05-02T15:59:32.452Z,43.30
2019-05-02T16:02:03.141Z,44.60
2019-05-02T16:04:34.617Z,45.80
2019-05-02T16:07:06.916Z,46.40
2019-05-02T16:09:29.846Z,46.20
2019-05-02T16:11:57.101Z,45.30
2019-05-02T16:14:27.081Z,45.60
2019-05-02T16:16:52.210Z,46.10
2019-05-02T16:19:24.666Z,46.40
2019-05-02T16:21:59.437Z,47.00
2019-05-02T16:24:25.102Z,47.00
2019-05-02T16:26:53.062Z,47.20
2019-05-02T16:29:26.882Z,47.70
2019-05-02T16:32:08.091Z,47.70
2019-05-02T16:34:36.791Z,48.20
2019-05-02T16:37:16.623Z,47.60
2019-05-02T16:39:42.588Z,48.00
2019-05-02T16:42:09.896Z,47.80
2019-05-02T16:44:36.579Z,47.60
2019-05-02T16:47:03.762Z,47.90
2019-05-02T16:49:32.150Z,48.60
2019-05-02T16:52:04.984Z,49.00
2019-05-02T16:54:41.885Z,50.00
2019-05-02T16:57:08.515Z,50.50
2019-05-02T16:59:35.305Z,51.10
2019-05-02T17:02:07.699Z,50.90
2019-05-02T17:04:31.940Z,51.00
2019-05-02T17:07:02.212Z,51.90
2019-05-02T17:09:38.464Z,52.20
2019-05-02T17:12:06.477Z,52.10
2019-05-02T17:14:32.636Z,51.70
2019-05-02T17:16:59.235Z,51.10
2019-05-02T17:19:31.381Z,50.80
2019-05-02T17:21:56.536Z,50.20
2019-05-02T17:24:26.117Z,49.80
2019-05-02T17:26:52.000Z,51.00
2019-05-02T17:29:21.407Z,51.70
2019-05-02T17:31:50.097Z,51.80
2019-05-02T17:34:15.200Z,52.30
2019-05-02T17:36:42.762Z,52.40
2019-05-02T17:39:12.420Z,52.10
2019-05-02T17:41:42.319Z,51.90
2019-05-02T17:44:07.414Z,53.00
2019-05-02T17:46:58.282Z,52.40
2019-05-02T17:49:23.617Z,52.70
2019-05-02T17:52:11.306Z,53.10
2019-05-02T17:54:38.988Z,53.30
2019-05-02T17:57:05.430Z,53.00
2019-05-02T17:59:42.062Z,53.30
2019-05-02T18:02:12.239Z,53.00
2019-05-02T18:04:37.512Z,52.50
2019-05-02T18:07:04.469Z,52.10
2019-05-02T18:09:34.929Z,52.00
2019-05-02T18:12:01.569Z,52.10
2019-05-02T18:14:28.153Z,52.30
2019-05-02T18:16:55.723Z,52.20
2019-05-02T18:19:24.559Z,51.90
2019-05-02T18:21:52.452Z,52.10
2019-05-02T18:24:19.231Z,52.00
2019-05-02T18:27:05.863Z,51.40
2019-05-02T18:29:36.227Z,51.50
2019-05-02T18:32:02.359Z,51.70
2019-05-02T18:34:29.042Z,51.30
2019-05-02T18:36:57.468Z,51.50
2019-05-02T18:39:23.805Z,51.30
2019-05-02T18:42:03.517Z,52.00
2019-05-02T18:44:30.259Z,52.20
2019-05-02T18:46:57.849Z,52.20
2019-05-02T18:49:24.437Z,51.90
2019-05-02T18:51:53.820Z,52.00
2019-05-02T18:54:19.175Z,52.00
2019-05-02T18:56:49.451Z,51.90
2019-05-02T18:59:19.667Z,51.50
2019-05-02T19:01:42.833Z,51.50
2019-05-02T19:04:09.588Z,51.20
2019-05-02T19:06:36.325Z,50.80
2019-05-02T19:09:07.555Z,50.90
2019-05-02T19:11:36.259Z,50.80
2019-05-02T19:14:03.667Z,50.30
2019-05-02T19:16:31.767Z,50.20
2019-05-02T19:18:58.866Z,50.20
2019-05-02T19:21:32.091Z,50.30
2019-05-02T19:23:55.388Z,50.60
2019-05-02T19:26:22.195Z,50.30
2019-05-02T19:29:21.501Z,50.50
2019-05-02T19:31:47.976Z,50.70
2019-05-02T19:34:16.740Z,50.80
2019-05-02T19:36:43.558Z,51.50
2019-05-02T19:39:10.620Z,51.40
2019-05-02T19:41:39.061Z,50.40
2019-05-02T19:44:06.469Z,50.80
2019-05-02T19:46:38.380Z,51.50
2019-05-02T19:49:02.140Z,51.40
2019-05-02T19:51:28.734Z,51.10
2019-05-02T19:53:59.314Z,51.30
2019-05-02T19:56:23.664Z,51.40
2019-05-02T19:58:52.145Z,51.70
2019-05-02T20:01:22.992Z,52.20
2019-05-02T20:03:47.543Z,51.50
2019-05-02T20:06:14.154Z,51.50
2019-05-02T20:08:43.697Z,51.80
2019-05-02T20:11:10.246Z,52.00
2019-05-02T20:13:36.944Z,51.60
2019-05-02T20:16:08.114Z,51.60
2019-05-02T20:18:42.432Z,51.80
2019-05-02T20:21:05.301Z,51.80
2019-05-02T20:23:39.196Z,51.60
2019-05-02T20:26:09.339Z,51.80
2019-05-02T20:28:34.354Z,51.90
2019-05-02T20:31:16.181Z,51.90
2019-05-02T20:33:49.707Z,51.80
2019-05-02T20:36:16.524Z,51.50
2019-05-02T20:38:43.288Z,51.60
2019-05-02T20:41:09.973Z,51.50
2019-05-02T20:43:36.422Z,51.30
2019-05-02T20:46:03.061Z,51.40
2019-05-02T20:48:41.869Z,51.90
2019-05-02T20:51:08.681Z,51.60
2019-05-02T20:53:35.434Z,52.50
2019-05-02T20:56:12.681Z,53.80
2019-05-02T20:58:39.523Z,54.70
2019-05-02T21:01:08.793Z,55.50
2019-05-02T21:03:34.819Z,56.30
2019-05-02T21:06:04.971Z,57.60
2019-05-02T21:08:42.612Z,57.70
2019-05-02T21:11:13.885Z,57.60
2019-05-02T21:13:41.846Z,55.10
2019-05-02T21:16:08.996Z,54.50
2019-05-02T21:18:36.566Z,54.00
2019-05-02T21:21:03.466Z,52.50
2019-05-02T21:23:41.936Z,51.60
2019-05-02T21:25:58.858Z,52.00
2019-05-02T21:28:25.423Z,52.60
2019-05-02T21:30:52.500Z,53.60
2019-05-02T21:33:37.362Z,54.00
2019-05-02T21:36:05.048Z,53.60
2019-05-02T21:38:32.068Z,53.50
2019-05-02T21:40:59.011Z,55.80
2019-05-02T21:43:25.978Z,56.40
2019-05-02T21:45:52.630Z,56.80
2019-05-02T21:48:21.831Z,56.90
2019-05-02T21:50:57.687Z,56.70
2019-05-02T21:53:54.975Z,57.00
2019-05-02T21:56:23.215Z,57.30
2019-05-02T21:59:03.578Z,53.90
2019-05-02T22:01:32.925Z,52.60
2019-05-02T22:04:02.129Z,52.50
2019-05-02T22:06:28.516Z,52.50
2019-05-02T22:08:55.092Z,52.20
2019-05-02T22:11:22.611Z,52.10
2019-05-02T22:13:49.375Z,52.40
2019-05-02T22:16:16.029Z,52.60
2019-05-02T22:18:42.894Z,53.50
2019-05-02T22:21:09.733Z,54.80
2019-05-02T22:23:37.198Z,57.80
2019-05-02T22:26:04.574Z,59.30
2019-05-02T22:28:32.689Z,59.60
2019-05-02T22:30:59.696Z,60.00
2019-05-02T22:33:37.290Z,60.30
2019-05-02T22:36:04.165Z,61.00
2019-05-02T22:38:35.291Z,61.30
2019-05-02T22:41:03.627Z,61.80
2019-05-02T22:43:30.502Z,61.90
2019-05-02T22:45:58.929Z,61.60
2019-05-02T22:48:26.011Z,61.50
2019-05-02T22:50:52.701Z,61.40
2019-05-02T22:53:19.353Z,61.80
2019-05-02T22:55:46.046Z,61.80
2019-05-02T22:58:12.659Z,62.10
2019-05-02T23:00:39.387Z,62.40
2019-05-02T23:03:05.918Z,62.20
2019-05-02T23:05:34.360Z,62.40
2019-05-02T23:08:12.583Z,62.20
2019-05-02T23:10:39.399Z,62.40
2019-05-02T23:13:05.958Z,63.70
2019-05-02T23:15:32.477Z,62.50
2019-05-02T23:17:58.952Z,62.10
2019-05-02T23:20:25.441Z,62.00
2019-05-02T23:22:52.361Z,62.60
2019-05-02T23:25:22.626Z,62.60
2019-05-02T23:27:51.869Z,63.00
2019-05-02T23:30:22.728Z,62.90
2019-05-02T23:32:51.191Z,62.70
2019-05-02T23:35:17.959Z,61.80
2019-05-02T23:37:44.424Z,61.30
2019-05-02T23:40:12.457Z,61.50
2019-05-02T23:42:47.012Z,61.80
2019-05-02T23:45:13.553Z,62.00
2019-05-02T23:47:42.055Z,62.00
2019-05-02T23:50:09.254Z,62.00
2019-05-02T23:52:35.747Z,62.60
2019-05-02T23:55:04.762Z,62.90
2019-05-02T23:57:32.405Z,62.80
2019-05-02T23:59:59.299Z,63.10
